Time,TemperatureF,DewpointF,PressureIn,WindDirection,WindDirectionDegrees,WindSpeedMPH,WindSpeedGustMPH,Humidity,HourlyPrecipIn,Conditions,Clouds,dailyrainin,SoftwareType,DateUTC
2013-02-25 00:02:00,22.7,14.4,30.38,WNW,297,0.0,0.0,70,0.00,,,0.00,Wunderground v.1.15,2013-02-25 07:02:00,
2013-02-25 00:04:00,22.7,14.4,30.38,WNW,297,0.0,0.0,70,0.00,,,0.00,Wunderground v.1.15,2013-02-25 07:04:00,
2013-02-25 00:06:00,22.7,14.4,30.38,WNW,297,0.0,0.0,70,0.00,,,0.00,Wunderground v.1.15,2013-02-25 07:06:00,
2013-02-25 00:08:00,22.5,14.2,30.38,WNW,297,0.0,0.0,70,0.00,,,0.00,Wunderground v.1.15,2013-02-25 07:08:00,
2013-02-25 00:10:00,22.5,14.2,30.38,WNW,297,0.0,0.0,70,0.00,,,0.00,Wunderground v.1.15,2013-02-25 07:10:00,
2013-02-25 00:12:00,22.4,14.1,30.38,WNW,297,0.0,0.0,70,0.00,,,0.00,Wunderground v.1.15,2013-02-25 07:12:00,
2013-02-25 00:14:00,22.4,14.1,30.38,WNW,297,0.0,0.0,70,0.00,,,0.00,Wunderground v.1.15,2013-02-25 07:14:00,
2013-02-25 00:18:00,22.2,13.9,30.39,WNW,297,0.0,0.0,70,0.00,,,0.00,Wunderground v.1.15,2013-02-25 07:18:00,
2013-02-25 00:20:00,22.2,13.9,30.39,WNW,297,0.0,0.0,70,0.00,,,0.00,Wunderground v.1.15,2013-02-25 07:20:00,
2013-02-25 00:24:00,22.2,14.2,30.39,WNW,297,0.0,0.0,71,0.00,,,0.00,Wunderground v.1.15,2013-02-25 07:24:00,
2013-02-25 00:26:00,22.2,14.2,30.39,WNW,297,0.0,0.0,71,0.00,,,0.00,Wunderground v.1.15,2013-02-25 07:26:00,
2013-02-25 00:30:00,22.2,14.2,30.39,WNW,297,0.0,0.0,71,0.00,,,0.00,Wunderground v.1.15,2013-02-25 07:30:00,
2013-02-25 00:32:00,22.1,14.1,30.39,WNW,297,0.0,0.0,71,0.00,,,0.00,Wunderground v.1.15,2013-02-25 07:32:00,
2013-02-25 00:34:00,22.1,14.1,30.39,WNW,297,0.0,0.0,71,0.00,,,0.00,Wunderground v.1.15,2013-02-25 07:34:00,
2013-02-25 00:38:00,21.9,13.9,30.39,WNW,297,0.0,0.0,71,0.00,,,0.00,Wunderground v.1.15,2013-02-25 07:38:00,
2013-02-25 00:40:00,21.9,13.9,30.39,WNW,297,0.0,0.0,71,0.00,,,0.00,Wunderground v.1.15,2013-02-25 07:40:00,
2013-02-25 00:44:00,21.8,13.8,30.39,WNW,297,0.0,0.0,71,0.00,,,0.00,Wunderground v.1.15,2013-02-25 07:44:00,
2013-02-25 00:46:00,21.8,13.8,30.39,WNW,297,0.0,0.0,71,0.00,,,0.00,Wunderground v.1.15,2013-02-25 07:46:00,
2013-02-25 00:50:00,21.6,13.6,30.39,WNW,297,0.0,0.0,71,0.00,,,0.00,Wunderground v.1.15,2013-02-25 07:50:00,
2013-02-25 00:54:00,21.4,13.5,30.39,WNW,297,0.0,0.0,71,0.00,,,0.00,Wunderground v.1.15,2013-02-25 07:54:00,
2013-02-25 00:58:00,21.4,13.5,30.39,WNW,297,0.0,0.0,71,0.00,,,0.00,Wunderground v.1.15,2013-02-25 07:58:00,
2013-02-25 01:02:00,21.3,13.7,30.40,WNW,297,0.0,0.0,72,0.00,,,0.00,Wunderground v.1.15,2013-02-25 08:02:00,
2013-02-25 01:04:00,21.3,13.4,30.40,WNW,297,0.0,0.0,71,0.00,,,0.00,Wunderground v.1.15,2013-02-25 08:04:00,
2013-02-25 01:06:00,21.1,13.2,30.40,WNW,297,0.0,0.0,71,0.00,,,0.00,Wunderground v.1.15,2013-02-25 08:06:00,
2013-02-25 01:10:00,21.1,13.2,30.40,WNW,297,0.0,0.0,71,0.00,,,0.00,Wunderground v.1.15,2013-02-25 08:10:00,
2013-02-25 01:12:00,21.0,13.1,30.40,WNW,297,0.0,0.0,71,0.00,,,0.00,Wunderground v.1.15,2013-02-25 08:12:00,
2013-02-25 01:14:00,21.0,13.1,30.40,WNW,297,0.0,0.0,71,0.00,,,0.00,Wunderground v.1.15,2013-02-25 08:14:00,
2013-02-25 01:16:00,20.8,12.9,30.40,WNW,297,0.0,0.0,71,0.00,,,0.00,Wunderground v.1.15,2013-02-25 08:16:00,
2013-02-25 01:18:00,20.6,12.7,30.40,WNW,297,0.0,0.0,71,0.00,,,0.00,Wunderground v.1.15,2013-02-25 08:18:00,
2013-02-25 01:20:00,20.6,13.0,30.40,WNW,297,0.0,0.0,72,0.00,,,0.00,Wunderground v.1.15,2013-02-25 08:20:00,
2013-02-25 01:22:00,20.5,12.9,30.40,WNW,297,0.0,0.0,72,0.00,,,0.00,Wunderground v.1.15,2013-02-25 08:22:00,
2013-02-25 01:24:00,20.3,12.7,30.40,WNW,297,0.0,0.0,72,0.00,,,0.00,Wunderground v.1.15,2013-02-25 08:24:00,
2013-02-25 01:26:00,20.3,12.7,30.40,WNW,297,0.0,0.0,72,0.00,,,0.00,Wunderground v.1.15,2013-02-25 08:26:00,
2013-02-25 01:31:00,20.0,12.4,30.41,WNW,297,0.0,0.0,72,0.00,,,0.00,Wunderground v.1.15,2013-02-25 08:31:00,
2013-02-25 01:32:00,19.9,12.3,30.41,WNW,297,0.0,0.0,72,0.00,,,0.00,Wunderground v.1.15,2013-02-25 08:32:00,
2013-02-25 01:36:00,19.5,11.9,30.41,WNW,297,0.0,0.0,72,0.00,,,0.00,Wunderground v.1.15,2013-02-25 08:36:00,
2013-02-25 01:38:00,19.5,12.3,30.41,WNW,297,0.0,0.0,73,0.00,,,0.00,Wunderground v.1.15,2013-02-25 08:38:00,
2013-02-25 01:40:00,19.4,12.2,30.41,WNW,297,0.0,0.0,73,0.00,,,0.00,Wunderground v.1.15,2013-02-25 08:40:00,
2013-02-25 01:44:00,19.2,12.3,30.41,WNW,297,0.0,0.0,74,0.00,,,0.00,Wunderground v.1.15,2013-02-25 08:44:00,
2013-02-25 01:46:00,19.2,12.3,30.43,WNW,297,0.0,0.0,74,0.00,,,0.00,Wunderground v.1.15,2013-02-25 08:46:00,
2013-02-25 01:50:00,18.9,12.0,30.43,WNW,297,0.0,0.0,74,0.00,,,0.00,Wunderground v.1.15,2013-02-25 08:50:00,
2013-02-25 01:52:00,18.9,12.0,30.43,WNW,297,0.0,0.0,74,0.00,,,0.00,Wunderground v.1.15,2013-02-25 08:52:00,
2013-02-25 01:54:00,18.8,11.9,30.43,WNW,297,0.0,0.0,74,0.00,,,0.00,Wunderground v.1.15,2013-02-25 08:54:00,
2013-02-25 01:56:00,18.6,11.7,30.43,WNW,297,0.0,0.0,74,0.00,,,0.00,Wunderground v.1.15,2013-02-25 08:56:00,
2013-02-25 01:58:00,18.4,11.8,30.43,WNW,297,0.0,0.0,75,0.00,,,0.00,Wunderground v.1.15,2013-02-25 08:58:00,
2013-02-25 02:02:00,18.3,11.7,30.43,WNW,297,0.0,0.0,75,0.00,,,0.00,Wunderground v.1.15,2013-02-25 09:02:00,
2013-02-25 02:04:00,18.1,11.5,30.43,WNW,297,0.0,0.0,75,0.00,,,0.00,Wunderground v.1.15,2013-02-25 09:04:00,
2013-02-25 02:08:00,18.0,11.4,30.43,WNW,297,0.0,0.0,75,0.00,,,0.00,Wunderground v.1.15,2013-02-25 09:08:00,
2013-02-25 02:10:00,17.8,11.5,30.43,WNW,297,0.0,0.0,76,0.00,,,0.00,Wunderground v.1.15,2013-02-25 09:10:00,
2013-02-25 02:16:00,17.7,11.4,30.44,WNW,297,0.0,0.0,76,0.00,,,0.00,Wunderground v.1.15,2013-02-25 09:16:00,
2013-02-25 02:18:00,17.7,11.4,30.44,WNW,297,0.0,0.0,76,0.00,,,0.00,Wunderground v.1.15,2013-02-25 09:18:00,
2013-02-25 02:22:00,17.5,11.2,30.44,WNW,297,0.0,0.0,76,0.00,,,0.00,Wunderground v.1.15,2013-02-25 09:22:00,
2013-02-25 02:24:00,17.3,11.0,30.44,WNW,297,0.0,0.0,76,0.00,,,0.00,Wunderground v.1.15,2013-02-25 09:24:00,
2013-02-25 02:28:00,17.3,11.0,30.44,WNW,297,0.0,0.0,76,0.00,,,0.00,Wunderground v.1.15,2013-02-25 09:28:00,
2013-02-25 02:32:00,17.5,11.5,30.46,WNW,297,0.0,0.0,77,0.00,,,0.00,Wunderground v.1.15,2013-02-25 09:32:00,
2013-02-25 02:34:00,17.7,11.7,30.46,WNW,297,0.0,0.0,77,0.00,,,0.00,Wunderground v.1.15,2013-02-25 09:34:00,
2013-02-25 02:38:00,17.8,11.8,30.46,WNW,297,0.0,0.0,77,0.00,,,0.00,Wunderground v.1.15,2013-02-25 09:38:00,
2013-02-25 02:40:00,17.8,11.8,30.46,WNW,297,0.0,0.0,77,0.00,,,0.00,Wunderground v.1.15,2013-02-25 09:40:00,
2013-02-25 02:44:00,18.0,12.0,30.46,WNW,297,0.0,0.0,77,0.00,,,0.00,Wunderground v.1.15,2013-02-25 09:44:00,
2013-02-25 02:46:00,18.1,11.8,30.44,WNW,297,0.0,0.0,76,0.00,,,0.00,Wunderground v.1.15,2013-02-25 09:46:00,
2013-02-25 02:48:00,18.3,12.0,30.44,WNW,297,0.0,0.0,76,0.00,,,0.00,Wunderground v.1.15,2013-02-25 09:48:00,
2013-02-25 02:50:00,18.3,12.0,30.44,WNW,297,0.0,0.0,76,0.00,,,0.00,Wunderground v.1.15,2013-02-25 09:50:00,
2013-02-25 02:52:00,18.4,12.1,30.44,WNW,297,0.0,0.0,76,0.00,,,0.00,Wunderground v.1.15,2013-02-25 09:52:00,
2013-02-25 02:56:00,18.6,12.3,30.44,WNW,297,0.0,0.0,76,0.00,,,0.00,Wunderground v.1.15,2013-02-25 09:56:00,
2013-02-25 02:58:00,18.6,12.3,30.44,WNW,297,0.0,0.0,76,0.00,,,0.00,Wunderground v.1.15,2013-02-25 09:58:00,
2013-02-25 03:02:00,18.6,12.0,30.44,WNW,297,0.0,0.0,75,0.00,,,0.00,Wunderground v.1.15,2013-02-25 10:02:00,
2013-02-25 03:06:00,18.4,11.8,30.44,WNW,297,0.0,0.0,75,0.00,,,0.00,Wunderground v.1.15,2013-02-25 10:06:00,
2013-02-25 03:08:00,18.4,11.8,30.44,WNW,297,0.0,0.0,75,0.00,,,0.00,Wunderground v.1.15,2013-02-25 10:08:00,
2013-02-25 03:10:00,18.3,11.7,30.44,WNW,297,0.0,0.0,75,0.00,,,0.00,Wunderground v.1.15,2013-02-25 10:10:00,
2013-02-25 03:14:00,18.1,11.5,30.44,WNW,297,0.0,0.0,75,0.00,,,0.00,Wunderground v.1.15,2013-02-25 10:14:00,
2013-02-25 03:16:00,18.1,11.5,30.44,WNW,297,0.0,0.0,75,0.00,,,0.00,Wunderground v.1.15,2013-02-25 10:16:00,
2013-02-25 03:20:00,18.0,11.4,30.44,WNW,297,0.0,0.0,75,0.00,,,0.00,Wunderground v.1.15,2013-02-25 10:20:00,
2013-02-25 03:22:00,17.8,11.2,30.44,WNW,297,0.0,0.0,75,0.00,,,0.00,Wunderground v.1.15,2013-02-25 10:22:00,
2013-02-25 03:24:00,17.8,11.2,30.44,WNW,297,0.0,0.0,75,0.00,,,0.00,Wunderground v.1.15,2013-02-25 10:24:00,
2013-02-25 03:26:00,17.7,11.1,30.44,WNW,297,0.0,0.0,75,0.00,,,0.00,Wunderground v.1.15,2013-02-25 10:26:00,
2013-02-25 03:31:00,17.5,10.9,30.44,WNW,297,0.0,0.0,75,0.00,,,0.00,Wunderground v.1.15,2013-02-25 10:31:00,
2013-02-25 03:32:00,17.3,10.7,30.44,WNW,297,0.0,0.0,75,0.00,,,0.00,Wunderground v.1.15,2013-02-25 10:32:00,
2013-02-25 03:36:00,17.2,10.6,30.44,WNW,297,0.0,0.0,75,0.00,,,0.00,Wunderground v.1.15,2013-02-25 10:36:00,
2013-02-25 03:40:00,16.9,10.3,30.44,WNW,297,0.0,0.0,75,0.00,,,0.00,Wunderground v.1.15,2013-02-25 10:40:00,
2013-02-25 03:42:00,16.7,10.1,30.44,WNW,297,0.0,0.0,75,0.00,,,0.00,Wunderground v.1.15,2013-02-25 10:42:00,
2013-02-25 03:46:00,16.5,10.0,30.46,WNW,297,0.0,0.0,75,0.00,,,0.00,Wunderground v.1.15,2013-02-25 10:46:00,
2013-02-25 03:48:00,16.4,9.9,30.46,WNW,297,0.0,0.0,75,0.00,,,0.00,Wunderground v.1.15,2013-02-25 10:48:00,
2013-02-25 03:50:00,16.4,10.2,30.46,WNW,297,0.0,0.0,76,0.00,,,0.00,Wunderground v.1.15,2013-02-25 10:50:00,
2013-02-25 03:52:00,16.4,10.2,30.46,WNW,297,0.0,0.0,76,0.00,,,0.00,Wunderground v.1.15,2013-02-25 10:52:00,
2013-02-25 03:54:00,16.5,10.3,30.46,WNW,297,0.0,0.0,76,0.00,,,0.00,Wunderground v.1.15,2013-02-25 10:54:00,
2013-02-25 03:56:00,16.7,10.4,30.46,WNW,297,0.0,0.0,76,0.00,,,0.00,Wunderground v.1.15,2013-02-25 10:56:00,
2013-02-25 04:00:00,17.0,10.7,30.46,WNW,297,0.0,0.0,76,0.00,,,0.00,Wunderground v.1.15,2013-02-25 11:00:00,
2013-02-25 04:02:00,17.0,10.4,30.46,WNW,297,0.0,0.0,75,0.00,,,0.00,Wunderground v.1.15,2013-02-25 11:02:00,
2013-02-25 04:04:00,17.0,10.4,30.46,WNW,297,0.0,0.0,75,0.00,,,0.00,Wunderground v.1.15,2013-02-25 11:04:00,
2013-02-25 04:06:00,17.0,10.4,30.46,WNW,297,0.0,0.0,75,0.00,,,0.00,Wunderground v.1.15,2013-02-25 11:06:00,
2013-02-25 04:10:00,17.2,10.6,30.46,WNW,297,0.0,0.0,75,0.00,,,0.00,Wunderground v.1.15,2013-02-25 11:10:00,
2013-02-25 04:12:00,17.3,10.7,30.46,WNW,297,0.0,0.0,75,0.00,,,0.00,Wunderground v.1.15,2013-02-25 11:12:00,
2013-02-25 04:16:00,17.5,11.2,30.46,WNW,297,0.0,0.0,76,0.00,,,0.00,Wunderground v.1.15,2013-02-25 11:16:00,
2013-02-25 04:18:00,17.5,11.2,30.46,WNW,297,0.0,0.0,76,0.00,,,0.00,Wunderground v.1.15,2013-02-25 11:18:00,
2013-02-25 04:20:00,17.7,11.4,30.46,WNW,297,0.0,0.0,76,0.00,,,0.00,Wunderground v.1.15,2013-02-25 11:20:00,
2013-02-25 04:22:00,17.7,11.4,30.46,WNW,297,0.0,0.0,76,0.00,,,0.00,Wunderground v.1.15,2013-02-25 11:22:00,
2013-02-25 04:24:00,17.8,11.5,30.46,WNW,297,0.0,0.0,76,0.00,,,0.00,Wunderground v.1.15,2013-02-25 11:24:00,
2013-02-25 04:26:00,17.8,11.8,30.46,WNW,297,0.0,0.0,77,0.00,,,0.00,Wunderground v.1.15,2013-02-25 11:26:00,
2013-02-25 04:28:00,18.0,12.0,30.46,WNW,297,0.0,0.0,77,0.00,,,0.00,Wunderground v.1.15,2013-02-25 11:28:00,
2013-02-25 04:32:00,18.1,12.1,30.46,WNW,297,0.0,0.0,77,0.00,,,0.00,Wunderground v.1.15,2013-02-25 11:32:00,
2013-02-25 04:34:00,18.1,12.1,30.46,WNW,297,0.0,2.0,77,0.00,,,0.00,Wunderground v.1.15,2013-02-25 11:34:00,
2013-02-25 04:36:00,18.1,12.1,30.46,WNW,297,0.0,2.0,77,0.00,,,0.00,Wunderground v.1.15,2013-02-25 11:36:00,
2013-02-25 04:38:00,18.3,12.0,30.46,WNW,297,0.0,2.0,76,0.00,,,0.00,Wunderground v.1.15,2013-02-25 11:38:00,
2013-02-25 04:40:00,18.3,12.0,30.46,WNW,297,0.0,0.0,76,0.00,,,0.00,Wunderground v.1.15,2013-02-25 11:40:00,
2013-02-25 04:44:00,18.1,11.8,30.46,WNW,297,0.0,1.0,76,0.00,,,0.00,Wunderground v.1.15,2013-02-25 11:44:00,
2013-02-25 04:46:00,18.1,11.8,30.46,WNW,297,0.0,1.0,76,0.00,,,0.00,Wunderground v.1.15,2013-02-25 11:46:00,
2013-02-25 04:48:00,18.1,11.8,30.46,WNW,297,0.0,1.0,76,0.00,,,0.00,Wunderground v.1.15,2013-02-25 11:48:00,
2013-02-25 04:52:00,18.0,11.7,30.46,WNW,297,0.0,0.0,76,0.00,,,0.00,Wunderground v.1.15,2013-02-25 11:52:00,
2013-02-25 04:54:00,18.1,12.1,30.46,WNW,297,0.0,0.0,77,0.00,,,0.00,Wunderground v.1.15,2013-02-25 11:54:00,
2013-02-25 04:56:00,18.1,12.1,30.46,WNW,297,0.0,1.0,77,0.00,,,0.00,Wunderground v.1.15,2013-02-25 11:56:00,
2013-02-25 05:01:00,18.3,12.3,30.47,WNW,297,0.0,0.0,77,0.00,,,0.00,Wunderground v.1.15,2013-02-25 12:01:00,
2013-02-25 05:02:00,18.4,12.4,30.47,WNW,297,0.0,0.0,77,0.00,,,0.00,Wunderground v.1.15,2013-02-25 12:02:00,
2013-02-25 05:06:00,18.6,12.6,30.47,WNW,297,0.0,0.0,77,0.00,,,0.00,Wunderground v.1.15,2013-02-25 12:06:00,
2013-02-25 05:08:00,18.8,12.8,30.47,WNW,297,0.0,0.0,77,0.00,,,0.00,Wunderground v.1.15,2013-02-25 12:08:00,
2013-02-25 05:12:00,18.9,12.6,30.47,WNW,297,0.0,0.0,76,0.00,,,0.00,Wunderground v.1.15,2013-02-25 12:12:00,
2013-02-25 05:16:00,19.2,12.9,30.46,WNW,297,0.0,0.0,76,0.00,,,0.00,Wunderground v.1.15,2013-02-25 12:16:00,
2013-02-25 05:18:00,19.2,12.9,30.46,WNW,297,0.0,0.0,76,0.00,,,0.00,Wunderground v.1.15,2013-02-25 12:18:00,
2013-02-25 05:20:00,19.4,12.8,30.46,WNW,297,0.0,0.0,75,0.00,,,0.00,Wunderground v.1.15,2013-02-25 12:20:00,
2013-02-25 05:22:00,19.4,12.8,30.46,WNW,297,0.0,0.0,75,0.00,,,0.00,Wunderground v.1.15,2013-02-25 12:22:00,
2013-02-25 05:26:00,19.5,12.9,30.46,WNW,297,0.0,0.0,75,0.00,,,0.00,Wunderground v.1.15,2013-02-25 12:26:00,
2013-02-25 05:32:00,19.5,12.6,30.48,WNW,297,0.0,0.0,74,0.00,,,0.00,Wunderground v.1.15,2013-02-25 12:32:00,
2013-02-25 05:36:00,19.5,12.6,30.48,WNW,297,0.0,0.0,74,0.00,,,0.00,Wunderground v.1.15,2013-02-25 12:36:00,
2013-02-25 05:38:00,19.5,12.6,30.48,WNW,297,0.0,0.0,74,0.00,,,0.00,Wunderground v.1.15,2013-02-25 12:38:00,
2013-02-25 05:40:00,19.5,12.6,30.48,WNW,297,0.0,0.0,74,0.00,,,0.00,Wunderground v.1.15,2013-02-25 12:40:00,
2013-02-25 05:44:00,19.5,12.6,30.48,WNW,297,0.0,0.0,74,0.00,,,0.00,Wunderground v.1.15,2013-02-25 12:44:00,
2013-02-25 05:50:00,19.5,12.6,30.48,WNW,297,0.0,0.0,74,0.00,,,0.00,Wunderground v.1.15,2013-02-25 12:50:00,
2013-02-25 05:52:00,19.5,12.6,30.48,WNW,297,0.0,0.0,74,0.00,,,0.00,Wunderground v.1.15,2013-02-25 12:52:00,
2013-02-25 05:56:00,19.5,12.3,30.48,WNW,297,0.0,0.0,73,0.00,,,0.00,Wunderground v.1.15,2013-02-25 12:56:00,
2013-02-25 05:58:00,19.5,12.3,30.48,WNW,297,0.0,0.0,73,0.00,,,0.00,Wunderground v.1.15,2013-02-25 12:58:00,
2013-02-25 06:02:00,19.7,11.5,30.49,WNW,297,0.0,1.0,70,0.00,,,0.00,Wunderground v.1.15,2013-02-25 13:02:00,
2013-02-25 06:04:00,19.7,11.5,30.49,WNW,297,0.0,1.0,70,0.00,,,0.00,Wunderground v.1.15,2013-02-25 13:04:00,
2013-02-25 06:06:00,19.9,11.4,30.49,WNW,297,0.0,1.0,69,0.00,,,0.00,Wunderground v.1.15,2013-02-25 13:06:00,
2013-02-25 06:10:00,19.9,11.4,30.49,WNW,297,0.0,0.0,69,0.00,,,0.00,Wunderground v.1.15,2013-02-25 13:10:00,
2013-02-25 06:12:00,19.9,11.4,30.49,WNW,297,0.0,0.0,69,0.00,,,0.00,Wunderground v.1.15,2013-02-25 13:12:00,
2013-02-25 06:16:00,19.9,11.0,30.49,WNW,297,0.0,0.0,68,0.00,,,0.00,Wunderground v.1.15,2013-02-25 13:16:00,
2013-02-25 06:18:00,19.9,11.0,30.49,WNW,297,0.0,0.0,68,0.00,,,0.00,Wunderground v.1.15,2013-02-25 13:18:00,
2013-02-25 06:22:00,19.9,11.0,30.49,WNW,297,0.0,1.0,68,0.00,,,0.00,Wunderground v.1.15,2013-02-25 13:22:00,
2013-02-25 06:24:00,19.9,11.0,30.49,WNW,297,0.0,1.0,68,0.00,,,0.00,Wunderground v.1.15,2013-02-25 13:24:00,
2013-02-25 06:26:00,19.7,10.8,30.49,WNW,297,0.0,1.0,68,0.00,,,0.00,Wunderground v.1.15,2013-02-25 13:26:00,
2013-02-25 06:30:00,19.7,10.8,30.49,WNW,297,0.0,0.0,68,0.00,,,0.00,Wunderground v.1.15,2013-02-25 13:30:00,
2013-02-25 06:32:00,19.5,10.6,30.49,WNW,297,0.0,0.0,68,0.00,,,0.00,Wunderground v.1.15,2013-02-25 13:32:00,
2013-02-25 06:34:00,19.4,10.6,30.49,WNW,297,0.0,0.0,68,0.00,,,0.00,Wunderground v.1.15,2013-02-25 13:34:00,
2013-02-25 06:36:00,19.4,10.9,30.49,WNW,297,0.0,0.0,69,0.00,,,0.00,Wunderground v.1.15,2013-02-25 13:36:00,
2013-02-25 06:38:00,19.2,10.7,30.49,WNW,297,0.0,0.0,69,0.00,,,0.00,Wunderground v.1.15,2013-02-25 13:38:00,
2013-02-25 06:42:00,19.1,10.6,30.49,WNW,297,0.0,0.0,69,0.00,,,0.00,Wunderground v.1.15,2013-02-25 13:42:00,
2013-02-25 06:44:00,19.1,10.9,30.49,WNW,297,0.0,0.0,70,0.00,,,0.00,Wunderground v.1.15,2013-02-25 13:44:00,
2013-02-25 06:46:00,18.9,10.7,30.50,WNW,297,0.0,0.0,70,0.00,,,0.00,Wunderground v.1.15,2013-02-25 13:46:00,
2013-02-25 06:48:00,18.9,10.7,30.50,WNW,297,0.0,0.0,70,0.00,,,0.00,Wunderground v.1.15,2013-02-25 13:48:00,
2013-02-25 06:52:00,18.9,10.7,30.50,WNW,297,0.0,0.0,70,0.00,,,0.00,Wunderground v.1.15,2013-02-25 13:52:00,
2013-02-25 06:54:00,18.9,10.7,30.50,WNW,297,0.0,0.0,70,0.00,,,0.00,Wunderground v.1.15,2013-02-25 13:54:00,
2013-02-25 06:56:00,18.9,10.7,30.50,WNW,297,0.0,0.0,70,0.00,,,0.00,Wunderground v.1.15,2013-02-25 13:56:00,
2013-02-25 06:58:00,18.9,10.7,30.50,WNW,297,0.0,0.0,70,0.00,,,0.00,Wunderground v.1.15,2013-02-25 13:58:00,
2013-02-25 07:00:00,18.8,10.6,30.50,WNW,297,0.0,0.0,70,0.00,,,0.00,Wunderground v.1.15,2013-02-25 14:00:00,
2013-02-25 07:02:00,18.8,10.9,30.50,WNW,297,0.0,0.0,71,0.00,,,0.00,Wunderground v.1.15,2013-02-25 14:02:00,
2013-02-25 07:06:00,18.8,10.9,30.50,WNW,297,0.0,0.0,71,0.00,,,0.00,Wunderground v.1.15,2013-02-25 14:06:00,
2013-02-25 07:08:00,18.8,10.9,30.50,WNW,297,0.0,0.0,71,0.00,,,0.00,Wunderground v.1.15,2013-02-25 14:08:00,
2013-02-25 07:12:00,18.9,11.4,30.50,WNW,297,0.0,0.0,72,0.00,,,0.00,Wunderground v.1.15,2013-02-25 14:12:00,
2013-02-25 07:14:00,19.1,11.2,30.50,WNW,297,0.0,0.0,71,0.00,,,0.00,Wunderground v.1.15,2013-02-25 14:14:00,
2013-02-25 07:16:00,19.2,11.3,30.51,WNW,297,0.0,0.0,71,0.00,,,0.00,Wunderground v.1.15,2013-02-25 14:16:00,
2013-02-25 07:20:00,19.4,11.5,30.51,WNW,297,0.0,0.0,71,0.00,,,0.00,Wunderground v.1.15,2013-02-25 14:20:00,
2013-02-25 07:22:00,19.5,11.6,30.51,WNW,297,0.0,0.0,71,0.00,,,0.00,Wunderground v.1.15,2013-02-25 14:22:00,
2013-02-25 07:24:00,19.5,11.6,30.51,WNW,297,0.0,0.0,71,0.00,,,0.00,Wunderground v.1.15,2013-02-25 14:24:00,
2013-02-25 07:28:00,19.7,11.8,30.51,WNW,297,0.0,0.0,71,0.00,,,0.00,Wunderground v.1.15,2013-02-25 14:28:00,
2013-02-25 07:30:00,19.9,12.0,30.50,WNW,297,0.0,0.0,71,0.00,,,0.00,Wunderground v.1.15,2013-02-25 14:30:00,
2013-02-25 07:32:00,19.9,12.0,30.50,WNW,297,0.0,0.0,71,0.00,,,0.00,Wunderground v.1.15,2013-02-25 14:32:00,
2013-02-25 07:34:00,20.0,12.1,30.50,WNW,297,0.0,0.0,71,0.00,,,0.00,Wunderground v.1.15,2013-02-25 14:34:00,
2013-02-25 07:38:00,20.2,12.3,30.50,WNW,297,0.0,0.0,71,0.00,,,0.00,Wunderground v.1.15,2013-02-25 14:38:00,
2013-02-25 07:40:00,20.2,12.3,30.50,WNW,297,0.0,0.0,71,0.00,,,0.00,Wunderground v.1.15,2013-02-25 14:40:00,
2013-02-25 07:42:00,20.2,12.3,30.50,WNW,297,0.0,0.0,71,0.00,,,0.00,Wunderground v.1.15,2013-02-25 14:42:00,
2013-02-25 07:44:00,20.3,12.4,30.50,WNW,297,0.0,0.0,71,0.00,,,0.00,Wunderground v.1.15,2013-02-25 14:44:00,
2013-02-25 07:46:00,20.3,12.4,30.50,WNW,297,0.0,0.0,71,0.00,,,0.00,Wunderground v.1.15,2013-02-25 14:46:00,
2013-02-25 07:48:00,20.5,12.6,30.50,WNW,297,0.0,0.0,71,0.00,,,0.00,Wunderground v.1.15,2013-02-25 14:48:00,
2013-02-25 07:50:00,20.5,12.6,30.50,WNW,297,0.0,0.0,71,0.00,,,0.00,Wunderground v.1.15,2013-02-25 14:50:00,
2013-02-25 07:54:00,20.6,12.4,30.50,WNW,297,0.0,0.0,70,0.00,,,0.00,Wunderground v.1.15,2013-02-25 14:54:00,
2013-02-25 07:56:00,20.8,12.6,30.50,WNW,297,0.0,0.0,70,0.00,,,0.00,Wunderground v.1.15,2013-02-25 14:56:00,
2013-02-25 08:00:00,21.0,12.7,30.50,WNW,297,0.0,0.0,70,0.00,,,0.00,Wunderground v.1.15,2013-02-25 15:00:00,
2013-02-25 08:04:00,21.3,12.7,30.50,WNW,297,0.0,0.0,69,0.00,,,0.00,Wunderground v.1.15,2013-02-25 15:04:00,
2013-02-25 08:06:00,21.4,12.8,30.50,WNW,297,0.0,0.0,69,0.00,,,0.00,Wunderground v.1.15,2013-02-25 15:06:00,
2013-02-25 08:08:00,21.6,13.0,30.50,WNW,297,0.0,0.0,69,0.00,,,0.00,Wunderground v.1.15,2013-02-25 15:08:00,
2013-02-25 08:12:00,22.1,13.1,30.50,WNW,297,0.0,0.0,68,0.00,,,0.00,Wunderground v.1.15,2013-02-25 15:12:00,
2013-02-25 08:14:00,22.1,12.8,30.50,WNW,297,0.0,0.0,67,0.00,,,0.00,Wunderground v.1.15,2013-02-25 15:14:00,
2013-02-25 08:16:00,22.1,12.5,30.49,WNW,297,0.0,1.0,66,0.00,,,0.00,Wunderground v.1.15,2013-02-25 15:16:00,
2013-02-25 08:20:00,22.2,12.2,30.49,WNW,297,0.0,0.0,65,0.00,,,0.00,Wunderground v.1.15,2013-02-25 15:20:00,
2013-02-25 08:22:00,22.5,12.1,30.49,WNW,297,0.0,0.0,64,0.00,,,0.00,Wunderground v.1.15,2013-02-25 15:22:00,
2013-02-25 08:26:00,23.2,12.1,30.49,WNW,297,0.0,0.0,62,0.00,,,0.00,Wunderground v.1.15,2013-02-25 15:26:00,
2013-02-25 08:30:00,23.2,11.4,30.49,WNW,297,0.0,2.0,60,0.00,,,0.00,Wunderground v.1.15,2013-02-25 15:30:00,
2013-02-25 08:32:00,23.5,11.6,30.49,WNW,297,1.0,2.0,60,0.00,,,0.00,Wunderground v.1.15,2013-02-25 15:32:00,
2013-02-25 08:36:00,23.8,11.2,30.49,WNW,297,1.0,2.0,58,0.00,,,0.00,Wunderground v.1.15,2013-02-25 15:36:00,
2013-02-25 08:38:00,23.8,11.2,30.49,WNW,297,1.0,2.0,58,0.00,,,0.00,Wunderground v.1.15,2013-02-25 15:38:00,
2013-02-25 08:42:00,24.4,11.7,30.49,WNW,297,1.0,1.0,58,0.00,,,0.00,Wunderground v.1.15,2013-02-25 15:42:00,
2013-02-25 08:44:00,24.8,12.1,30.49,WNW,297,1.0,1.0,58,0.00,,,0.00,Wunderground v.1.15,2013-02-25 15:44:00,
2013-02-25 08:48:00,25.3,12.2,30.47,WNW,297,0.0,1.0,57,0.00,,,0.00,Wunderground v.1.15,2013-02-25 15:48:00,
2013-02-25 08:52:00,25.6,11.7,30.47,SE,126,0.0,1.0,55,0.00,,,0.01,Wunderground v.1.15,2013-02-25 15:52:00,
2013-02-25 08:54:00,25.6,11.2,30.47,SE,146,1.0,4.0,54,0.00,,,0.01,Wunderground v.1.15,2013-02-25 15:54:00,
2013-02-25 08:56:00,25.4,10.6,30.47,South,169,1.0,4.0,53,0.00,,,0.01,Wunderground v.1.15,2013-02-25 15:56:00,
2013-02-25 08:58:00,25.3,10.5,30.47,SE,146,2.0,4.0,53,0.00,,,0.01,Wunderground v.1.15,2013-02-25 15:58:00,
2013-02-25 09:00:00,25.1,10.3,30.47,SSE,148,2.0,2.0,53,0.00,,,0.01,Wunderground v.1.15,2013-02-25 16:00:00,
2013-02-25 09:06:00,25.1,10.3,30.47,SE,126,2.0,3.0,53,0.00,,,0.01,Wunderground v.1.15,2013-02-25 16:06:00,
2013-02-25 09:08:00,25.4,11.0,30.47,SE,126,2.0,3.0,54,0.00,,,0.01,Wunderground v.1.15,2013-02-25 16:08:00,
2013-02-25 09:12:00,25.6,10.8,30.47,SE,140,1.0,5.0,53,0.00,,,0.01,Wunderground v.1.15,2013-02-25 16:12:00,
2013-02-25 09:14:00,25.8,11.4,30.47,SE,140,1.0,5.0,54,0.00,,,0.01,Wunderground v.1.15,2013-02-25 16:14:00,
2013-02-25 09:16:00,26.0,11.2,30.46,SE,140,1.0,5.0,53,0.00,,,0.01,Wunderground v.1.15,2013-02-25 16:16:00,
2013-02-25 09:20:00,26.3,10.6,30.46,SE,144,1.0,2.0,51,0.00,,,0.01,Wunderground v.1.15,2013-02-25 16:20:00,
2013-02-25 09:24:00,26.1,10.0,30.46,SE,134,1.0,3.0,50,0.00,,,0.01,Wunderground v.1.15,2013-02-25 16:24:00,
2013-02-25 09:26:00,26.3,10.2,30.46,SE,134,1.0,3.0,50,0.00,,,0.01,Wunderground v.1.15,2013-02-25 16:26:00,
2013-02-25 09:28:00,26.4,10.3,30.46,SE,134,1.0,3.0,50,0.00,,,0.01,Wunderground v.1.15,2013-02-25 16:28:00,
2013-02-25 09:30:00,26.3,10.2,30.46,SE,134,1.0,1.0,50,0.00,,,0.01,Wunderground v.1.15,2013-02-25 16:30:00,
2013-02-25 09:32:00,26.4,10.3,30.46,SE,134,1.0,1.0,50,0.00,,,0.01,Wunderground v.1.15,2013-02-25 16:32:00,
2013-02-25 09:36:00,26.6,10.4,30.46,SE,134,1.0,1.0,50,0.00,,,0.01,Wunderground v.1.15,2013-02-25 16:36:00,
2013-02-25 09:38:00,26.7,10.5,30.46,SE,134,1.0,1.0,50,0.00,,,0.01,Wunderground v.1.15,2013-02-25 16:38:00,
2013-02-25 09:40:00,26.9,10.7,30.46,SE,134,1.0,1.0,50,0.00,,,0.01,Wunderground v.1.15,2013-02-25 16:40:00,
2013-02-25 09:42:00,27.0,9.9,30.46,SE,134,1.0,1.0,48,0.00,,,0.01,Wunderground v.1.15,2013-02-25 16:42:00,
2013-02-25 09:44:00,27.0,10.4,30.46,SE,134,1.0,1.0,49,0.00,,,0.01,Wunderground v.1.15,2013-02-25 16:44:00,
2013-02-25 09:46:00,27.0,10.4,30.45,SE,134,1.0,1.0,49,0.00,,,0.01,Wunderground v.1.15,2013-02-25 16:46:00,
2013-02-25 09:50:00,27.2,10.1,30.45,SE,134,1.0,1.0,48,0.00,,,0.01,Wunderground v.1.15,2013-02-25 16:50:00,
2013-02-25 09:52:00,27.3,10.2,30.45,SE,134,0.0,1.0,48,0.00,,,0.01,Wunderground v.1.15,2013-02-25 16:52:00,
2013-02-25 09:54:00,27.5,10.4,30.45,SE,134,0.0,1.0,48,0.00,,,0.01,Wunderground v.1.15,2013-02-25 16:54:00,
2013-02-25 09:58:00,27.6,10.9,30.45,SE,134,0.0,1.0,49,0.00,,,0.01,Wunderground v.1.15,2013-02-25 16:58:00,
2013-02-25 10:00:00,27.8,10.2,30.45,SE,134,0.0,2.0,47,0.00,,,0.01,Wunderground v.1.15,2013-02-25 17:00:00,
2013-02-25 10:02:00,27.5,9.9,30.44,SE,133,1.0,2.0,47,0.00,,,0.01,Wunderground v.1.15,2013-02-25 17:02:00,
2013-02-25 10:08:00,27.3,9.7,30.44,ESE,123,1.0,2.0,47,0.00,,,0.01,Wunderground v.1.15,2013-02-25 17:08:00,
2013-02-25 10:10:00,27.2,9.6,30.44,ESE,123,1.0,1.0,47,0.00,,,0.01,Wunderground v.1.15,2013-02-25 17:10:00,
2013-02-25 10:12:00,27.3,10.2,30.44,ESE,123,1.0,1.0,48,0.00,,,0.01,Wunderground v.1.15,2013-02-25 17:12:00,
2013-02-25 10:14:00,27.6,10.4,30.44,ESE,123,1.0,1.0,48,0.00,,,0.01,Wunderground v.1.15,2013-02-25 17:14:00,
2013-02-25 10:16:00,27.8,10.2,30.44,ESE,123,0.0,1.0,47,0.00,,,0.01,Wunderground v.1.15,2013-02-25 17:16:00,
2013-02-25 10:18:00,27.9,11.2,30.44,ESE,123,0.0,1.0,49,0.00,,,0.01,Wunderground v.1.15,2013-02-25 17:18:00,
2013-02-25 10:22:00,28.1,10.4,30.44,ESE,123,0.0,0.0,47,0.00,,,0.01,Wunderground v.1.15,2013-02-25 17:22:00,
2013-02-25 10:24:00,28.4,10.7,30.44,ESE,123,0.0,0.0,47,0.00,,,0.01,Wunderground v.1.15,2013-02-25 17:24:00,
2013-02-25 10:28:00,28.7,10.5,30.44,SE,133,1.0,2.0,46,0.00,,,0.01,Wunderground v.1.15,2013-02-25 17:28:00,
2013-02-25 10:30:00,28.2,10.5,30.43,SE,133,1.0,1.0,47,0.00,,,0.01,Wunderground v.1.15,2013-02-25 17:30:00,
2013-02-25 10:36:00,28.7,11.5,30.43,NE,44,1.0,3.0,48,0.00,,,0.01,Wunderground v.1.15,2013-02-25 17:36:00,
2013-02-25 10:38:00,28.7,10.5,30.43,NE,44,1.0,3.0,46,0.00,,,0.01,Wunderground v.1.15,2013-02-25 17:38:00,
2013-02-25 10:42:00,29.0,11.3,30.43,NE,44,0.0,0.0,47,0.00,,,0.01,Wunderground v.1.15,2013-02-25 17:42:00,
2013-02-25 10:44:00,29.4,11.6,30.43,NE,45,0.0,0.0,47,0.00,,,0.01,Wunderground v.1.15,2013-02-25 17:44:00,
2013-02-25 10:46:00,29.4,11.1,30.42,NNE,33,1.0,3.0,46,0.00,,,0.01,Wunderground v.1.15,2013-02-25 17:46:00,
2013-02-25 10:48:00,29.0,10.8,30.42,NNE,32,1.0,3.0,46,0.00,,,0.01,Wunderground v.1.15,2013-02-25 17:48:00,
2013-02-25 10:50:00,28.7,10.0,30.42,NE,34,1.0,1.0,45,0.00,,,0.01,Wunderground v.1.15,2013-02-25 17:50:00,
2013-02-25 10:52:00,28.2,10.0,30.42,North,32767,1.0,1.0,46,0.00,,,0.01,Wunderground v.1.15,2013-02-25 17:52:00,
2013-02-25 10:54:00,27.9,9.8,30.42,North,32767,1.0,1.0,46,0.00,,,0.01,Wunderground v.1.15,2013-02-25 17:54:00,
2013-02-25 10:58:00,27.9,9.8,30.42,ENE,74,1.0,2.0,46,0.00,,,0.01,Wunderground v.1.15,2013-02-25 17:58:00,
2013-02-25 11:00:00,28.1,10.4,30.43,NE,53,1.0,3.0,47,0.00,,,0.01,Wunderground v.1.15,2013-02-25 18:00:00,
2013-02-25 11:02:00,28.1,9.9,30.43,NE,51,1.0,3.0,46,0.00,,,0.01,Wunderground v.1.15,2013-02-25 18:02:00,
2013-02-25 11:04:00,28.1,9.9,30.43,NE,51,1.0,3.0,46,0.00,,,0.01,Wunderground v.1.15,2013-02-25 18:04:00,
2013-02-25 11:06:00,28.4,10.2,30.43,NE,53,1.0,3.0,46,0.00,,,0.01,Wunderground v.1.15,2013-02-25 18:06:00,
2013-02-25 11:10:00,29.0,10.8,30.43,NNE,30,1.0,2.0,46,0.00,,,0.01,Wunderground v.1.15,2013-02-25 18:10:00,
2013-02-25 11:12:00,28.8,10.1,30.43,NE,47,1.0,2.0,45,0.00,,,0.01,Wunderground v.1.15,2013-02-25 18:12:00,
2013-02-25 11:16:00,28.7,9.5,30.41,NE,36,1.0,3.0,44,0.00,,,0.01,Wunderground v.1.15,2013-02-25 18:16:00,
2013-02-25 11:18:00,28.8,11.1,30.41,NE,36,1.0,3.0,47,0.00,,,0.01,Wunderground v.1.15,2013-02-25 18:18:00,
2013-02-25 11:20:00,29.0,10.3,30.41,NE,36,1.0,1.0,45,0.00,,,0.01,Wunderground v.1.15,2013-02-25 18:20:00,
2013-02-25 11:22:00,28.8,10.6,30.41,SSE,166,1.0,1.0,46,0.00,,,0.01,Wunderground v.1.15,2013-02-25 18:22:00,
2013-02-25 11:26:00,29.4,11.6,30.41,East,92,1.0,3.0,47,0.00,,,0.01,Wunderground v.1.15,2013-02-25 18:26:00,
2013-02-25 11:28:00,29.4,10.6,30.41,East,81,1.0,3.0,45,0.00,,,0.01,Wunderground v.1.15,2013-02-25 18:28:00,
2013-02-25 11:30:00,29.4,10.6,30.41,East,81,1.0,1.0,45,0.00,,,0.01,Wunderground v.1.15,2013-02-25 18:30:00,
2013-02-25 11:34:00,29.5,10.7,30.41,East,81,1.0,2.0,45,0.00,,,0.01,Wunderground v.1.15,2013-02-25 18:34:00,
2013-02-25 11:36:00,29.7,10.9,30.41,East,80,1.0,2.0,45,0.00,,,0.01,Wunderground v.1.15,2013-02-25 18:36:00,
2013-02-25 11:38:00,29.8,11.0,30.41,ENE,76,1.0,2.0,45,0.00,,,0.01,Wunderground v.1.15,2013-02-25 18:38:00,
2013-02-25 11:42:00,30.0,10.7,30.41,NNE,13,1.0,1.0,44,0.00,,,0.01,Wunderground v.1.15,2013-02-25 18:42:00,
2013-02-25 11:44:00,30.0,11.2,30.41,NNE,15,0.0,1.0,45,0.00,,,0.01,Wunderground v.1.15,2013-02-25 18:44:00,
2013-02-25 11:48:00,29.5,10.7,30.40,ENE,70,1.0,1.0,45,0.00,,,0.01,Wunderground v.1.15,2013-02-25 18:48:00,
2013-02-25 11:50:00,29.4,11.1,30.40,NE,51,1.0,1.0,46,0.00,,,0.01,Wunderground v.1.15,2013-02-25 18:50:00,
2013-02-25 11:52:00,29.3,11.1,30.40,NE,49,1.0,1.0,46,0.00,,,0.01,Wunderground v.1.15,2013-02-25 18:52:00,
2013-02-25 11:54:00,29.3,11.1,30.40,ENE,64,2.0,2.0,46,0.00,,,0.01,Wunderground v.1.15,2013-02-25 18:54:00,
2013-02-25 11:56:00,29.1,11.4,30.40,NE,38,2.0,3.0,47,0.00,,,0.01,Wunderground v.1.15,2013-02-25 18:56:00,
2013-02-25 11:58:00,29.1,11.4,30.40,NNE,29,2.0,3.0,47,0.00,,,0.01,Wunderground v.1.15,2013-02-25 18:58:00,
2013-02-25 12:01:00,29.0,11.3,30.39,NE,36,2.0,2.0,47,0.00,,,0.01,Wunderground v.1.15,2013-02-25 19:01:00,
2013-02-25 12:06:00,29.1,11.4,30.39,ESE,117,1.0,3.0,47,0.00,,,0.01,Wunderground v.1.15,2013-02-25 19:06:00,
2013-02-25 12:08:00,29.1,11.4,30.39,ENE,57,1.0,3.0,47,0.00,,,0.01,Wunderground v.1.15,2013-02-25 19:08:00,
2013-02-25 12:10:00,29.1,11.4,30.39,NNE,30,1.0,3.0,47,0.00,,,0.01,Wunderground v.1.15,2013-02-25 19:10:00,
2013-02-25 12:14:00,29.0,12.2,30.39,NE,50,2.0,3.0,49,0.00,,,0.01,Wunderground v.1.15,2013-02-25 19:14:00,
2013-02-25 12:16:00,29.0,11.3,30.40,ENE,70,2.0,3.0,47,0.00,,,0.01,Wunderground v.1.15,2013-02-25 19:16:00,
2013-02-25 12:20:00,28.8,11.1,30.40,NE,49,2.0,2.0,47,0.00,,,0.01,Wunderground v.1.15,2013-02-25 19:20:00,
2013-02-25 12:24:00,29.1,12.3,30.40,NE,49,1.0,2.0,49,0.00,,,0.01,Wunderground v.1.15,2013-02-25 19:24:00,
2013-02-25 12:26:00,29.5,12.2,30.40,NNE,26,1.0,2.0,48,0.00,,,0.01,Wunderground v.1.15,2013-02-25 19:26:00,
2013-02-25 12:28:00,29.7,12.4,30.40,NNE,25,1.0,2.0,48,0.00,,,0.01,Wunderground v.1.15,2013-02-25 19:28:00,
2013-02-25 12:32:00,29.7,11.4,30.38,NNE,28,1.0,4.0,46,0.00,,,0.01,Wunderground v.1.15,2013-02-25 19:32:00,
2013-02-25 12:36:00,29.8,11.5,30.38,ENE,78,1.0,4.0,46,0.00,,,0.01,Wunderground v.1.15,2013-02-25 19:36:00,
2013-02-25 12:38:00,29.8,11.5,30.38,ENE,78,1.0,4.0,46,0.00,,,0.01,Wunderground v.1.15,2013-02-25 19:38:00,
2013-02-25 12:40:00,30.0,11.7,30.38,ENE,78,1.0,1.0,46,0.00,,,0.01,Wunderground v.1.15,2013-02-25 19:40:00,
2013-02-25 12:44:00,30.1,11.8,30.38,NNE,14,1.0,1.0,46,0.00,,,0.01,Wunderground v.1.15,2013-02-25 19:44:00,
2013-02-25 12:46:00,30.3,12.0,30.38,NE,48,1.0,2.0,46,0.00,,,0.01,Wunderground v.1.15,2013-02-25 19:46:00,
2013-02-25 12:48:00,30.0,11.2,30.38,East,93,1.0,2.0,45,0.00,,,0.01,Wunderground v.1.15,2013-02-25 19:48:00,
2013-02-25 12:52:00,30.3,12.0,30.38,NNE,13,1.0,4.0,46,0.00,,,0.01,Wunderground v.1.15,2013-02-25 19:52:00,
2013-02-25 12:54:00,30.3,11.5,30.38,North,5,2.0,4.0,45,0.00,,,0.01,Wunderground v.1.15,2013-02-25 19:54:00,
2013-02-25 12:58:00,30.3,12.0,30.38,NNE,17,2.0,4.0,46,0.00,,,0.01,Wunderground v.1.15,2013-02-25 19:58:00,
2013-02-25 13:00:00,30.3,12.0,30.37,North,5,2.0,6.0,46,0.00,,,0.01,Wunderground v.1.15,2013-02-25 20:00:00,
2013-02-25 13:02:00,30.3,11.5,30.37,NNE,26,3.0,6.0,45,0.00,,,0.01,Wunderground v.1.15,2013-02-25 20:02:00,
2013-02-25 13:06:00,30.3,11.5,30.37,NNE,13,2.0,6.0,45,0.00,,,0.01,Wunderground v.1.15,2013-02-25 20:06:00,
2013-02-25 13:08:00,30.4,11.1,30.37,NNE,15,2.0,6.0,44,0.00,,,0.01,Wunderground v.1.15,2013-02-25 20:08:00,
2013-02-25 13:10:00,30.6,10.7,30.37,NNE,16,2.0,2.0,43,0.00,,,0.01,Wunderground v.1.15,2013-02-25 20:10:00,
2013-02-25 13:12:00,30.7,11.3,30.37,ENE,59,1.0,3.0,44,0.00,,,0.01,Wunderground v.1.15,2013-02-25 20:12:00,
2013-02-25 13:14:00,30.7,11.3,30.37,NE,34,1.0,4.0,44,0.00,,,0.01,Wunderground v.1.15,2013-02-25 20:14:00,
2013-02-25 13:16:00,30.6,11.7,30.38,ENE,71,1.0,5.0,45,0.00,,,0.01,Wunderground v.1.15,2013-02-25 20:16:00,
2013-02-25 13:20:00,30.3,11.0,30.38,NE,41,2.0,3.0,44,0.00,,,0.01,Wunderground v.1.15,2013-02-25 20:20:00,
2013-02-25 13:22:00,30.3,11.5,30.38,NNE,19,2.0,3.0,45,0.00,,,0.01,Wunderground v.1.15,2013-02-25 20:22:00,
2013-02-25 13:26:00,30.4,11.6,30.38,NE,49,2.0,6.0,45,0.00,,,0.01,Wunderground v.1.15,2013-02-25 20:26:00,
2013-02-25 13:30:00,30.4,10.5,30.38,NNE,17,2.0,4.0,43,0.00,,,0.01,Wunderground v.1.15,2013-02-25 20:30:00,
2013-02-25 13:32:00,30.4,10.5,30.38,NNE,24,2.0,4.0,43,0.00,,,0.01,Wunderground v.1.15,2013-02-25 20:32:00,
2013-02-25 13:33:00,30.4,10.0,30.38,NNE,23,2.0,-999.0,42,0.00,,,0.01,Wunderground v.1.15,2013-02-25 20:33:00,
2013-02-25 13:36:00,30.4,10.0,30.38,NE,52,2.0,4.0,42,0.00,,,0.01,Wunderground v.1.15,2013-02-25 20:36:00,
2013-02-25 13:38:00,30.9,10.5,30.38,NE,45,1.0,-999.0,42,0.00,,,0.01,Wunderground v.1.15,2013-02-25 20:38:00,
2013-02-25 13:40:00,30.9,11.0,30.38,NE,52,1.0,3.0,43,0.00,,,0.01,Wunderground v.1.15,2013-02-25 20:40:00,
2013-02-25 13:42:00,30.9,10.5,30.38,East,98,1.0,3.0,42,0.00,,,0.01,Wunderground v.1.15,2013-02-25 20:42:00,
2013-02-25 13:43:00,30.9,10.5,30.38,NE,45,1.0,-999.0,42,0.00,,,0.01,Wunderground v.1.15,2013-02-25 20:43:00,
2013-02-25 13:46:00,30.9,10.5,30.37,ENE,67,1.0,3.0,42,0.00,,,0.01,Wunderground v.1.15,2013-02-25 20:46:00,
2013-02-25 13:48:00,31.3,10.8,30.37,NE,45,2.0,-999.0,42,0.00,,,0.01,Wunderground v.1.15,2013-02-25 20:48:00,
2013-02-25 13:50:00,31.2,11.3,30.37,NE,38,2.0,2.0,43,0.00,,,0.01,Wunderground v.1.15,2013-02-25 20:50:00,
2013-02-25 13:52:00,31.3,10.8,30.37,NE,37,2.0,2.0,42,0.00,,,0.01,Wunderground v.1.15,2013-02-25 20:52:00,
2013-02-25 13:53:00,31.3,10.8,30.37,NE,45,2.0,-999.0,42,0.00,,,0.01,Wunderground v.1.15,2013-02-25 20:53:00,
2013-02-25 13:56:00,31.5,10.5,30.37,East,84,2.0,4.0,41,0.00,,,0.01,Wunderground v.1.15,2013-02-25 20:56:00,
2013-02-25 13:58:00,31.5,11.0,30.37,East,89,2.0,4.0,42,0.00,,,0.01,Wunderground v.1.15,2013-02-25 20:58:00,
2013-02-25 14:02:00,31.3,11.4,30.36,ENE,63,1.0,4.0,43,0.00,,,0.01,Wunderground v.1.15,2013-02-25 21:02:00,
2013-02-25 14:03:00,31.3,10.8,30.36,East,90,1.0,-999.0,42,0.00,,,0.01,Wunderground v.1.15,2013-02-25 21:03:00,
2013-02-25 14:06:00,31.3,10.8,30.36,NNE,32,1.0,4.0,42,0.00,,,0.01,Wunderground v.1.15,2013-02-25 21:06:00,
2013-02-25 14:08:00,31.5,10.5,30.36,ENE,71,2.0,4.0,41,0.00,,,0.01,Wunderground v.1.15,2013-02-25 21:08:00,
2013-02-25 14:10:00,31.6,11.1,30.36,ENE,78,2.0,2.0,42,0.00,,,0.01,Wunderground v.1.15,2013-02-25 21:10:00,
2013-02-25 14:12:00,31.5,10.5,30.36,East,96,2.0,2.0,41,0.00,,,0.01,Wunderground v.1.15,2013-02-25 21:12:00,
2013-02-25 14:13:00,31.6,10.6,30.36,ENE,68,2.0,-999.0,41,0.00,,,0.01,Wunderground v.1.15,2013-02-25 21:13:00,
2013-02-25 14:16:00,31.5,11.0,30.34,East,94,2.0,2.0,42,0.00,,,0.01,Wunderground v.1.15,2013-02-25 21:16:00,
2013-02-25 14:18:00,31.5,11.5,30.34,ESE,117,2.0,2.0,43,0.00,,,0.01,Wunderground v.1.15,2013-02-25 21:18:00,
2013-02-25 14:20:00,31.6,12.7,30.34,ESE,119,1.0,5.0,45,0.00,,,0.01,Wunderground v.1.15,2013-02-25 21:20:00,
2013-02-25 14:23:00,31.6,11.1,30.34,ESE,113,2.0,-999.0,42,0.00,,,0.01,Wunderground v.1.15,2013-02-25 21:23:00,
2013-02-25 14:24:00,31.6,11.6,30.34,ESE,106,2.0,5.0,43,0.00,,,0.01,Wunderground v.1.15,2013-02-25 21:24:00,
2013-02-25 14:26:00,31.6,10.6,30.34,East,100,2.0,5.0,41,0.00,,,0.01,Wunderground v.1.15,2013-02-25 21:26:00,
2013-02-25 14:28:00,31.8,12.3,30.34,ESE,119,2.0,5.0,44,0.00,,,0.01,Wunderground v.1.15,2013-02-25 21:28:00,
2013-02-25 14:32:00,31.5,11.0,30.33,ESE,115,2.0,2.0,42,0.00,,,0.01,Wunderground v.1.15,2013-02-25 21:32:00,
2013-02-25 14:33:00,31.5,10.5,30.33,ESE,113,2.0,-999.0,41,0.00,,,0.01,Wunderground v.1.15,2013-02-25 21:33:00,
2013-02-25 14:38:00,31.6,9.4,30.33,ESE,111,1.0,3.0,39,0.00,,,0.01,Wunderground v.1.15,2013-02-25 21:38:00,
2013-02-25 14:40:00,31.6,9.4,30.33,East,90,1.0,1.0,39,0.00,,,0.01,Wunderground v.1.15,2013-02-25 21:40:00,
2013-02-25 14:42:00,31.5,9.4,30.33,East,90,1.0,1.0,39,0.00,,,0.01,Wunderground v.1.15,2013-02-25 21:42:00,
2013-02-25 14:43:00,31.5,9.4,30.33,ESE,113,1.0,-999.0,39,0.00,,,0.01,Wunderground v.1.15,2013-02-25 21:43:00,
2013-02-25 14:46:00,31.3,9.7,30.33,East,101,1.0,1.0,40,0.00,,,0.01,Wunderground v.1.15,2013-02-25 21:46:00,
2013-02-25 14:48:00,31.5,10.5,30.33,ESE,115,1.0,1.0,41,0.00,,,0.01,Wunderground v.1.15,2013-02-25 21:48:00,
2013-02-25 14:52:00,31.5,10.5,30.33,East,80,2.0,2.0,41,0.00,,,0.01,Wunderground v.1.15,2013-02-25 21:52:00,
2013-02-25 14:53:00,31.6,10.0,30.33,East,90,2.0,-999.0,40,0.00,,,0.01,Wunderground v.1.15,2013-02-25 21:53:00,
2013-02-25 14:54:00,31.6,10.0,30.33,ENE,78,1.0,2.0,40,0.00,,,0.01,Wunderground v.1.15,2013-02-25 21:54:00,
2013-02-25 14:58:00,32.4,10.2,30.33,East,90,0.0,-999.0,39,0.00,,,0.01,Wunderground v.1.15,2013-02-25 21:58:00,
2013-02-25 15:01:00,32.2,9.4,30.33,East,94,0.0,0.0,38,0.00,,,0.01,Wunderground v.1.15,2013-02-25 22:01:00,
2013-02-25 15:03:00,32.4,10.2,30.33,East,90,0.0,-999.0,39,0.00,,,0.01,Wunderground v.1.15,2013-02-25 22:03:00,
2013-02-25 15:06:00,32.8,9.9,30.33,SE,126,1.0,1.0,38,0.00,,,0.01,Wunderground v.1.15,2013-02-25 22:06:00,
2013-02-25 15:08:00,32.9,8.2,30.33,ESE,113,1.0,-999.0,35,0.00,,,0.01,Wunderground v.1.15,2013-02-25 22:08:00,
2013-02-25 15:10:00,32.9,8.2,30.33,ESE,107,1.0,1.0,35,0.00,,,0.01,Wunderground v.1.15,2013-02-25 22:10:00,
2013-02-25 15:12:00,32.8,8.1,30.33,East,100,1.0,2.0,35,0.00,,,0.01,Wunderground v.1.15,2013-02-25 22:12:00,
2013-02-25 15:13:00,32.9,8.2,30.33,ESE,113,1.0,-999.0,35,0.00,,,0.01,Wunderground v.1.15,2013-02-25 22:13:00,
2013-02-25 15:14:00,32.8,8.7,30.33,East,96,1.0,2.0,36,0.00,,,0.01,Wunderground v.1.15,2013-02-25 22:14:00,
2013-02-25 15:18:00,32.8,8.1,30.32,East,101,1.0,2.0,35,0.00,,,0.01,Wunderground v.1.15,2013-02-25 22:18:00,
2013-02-25 15:20:00,32.8,9.3,30.32,ESE,103,1.0,1.0,37,0.00,,,0.01,Wunderground v.1.15,2013-02-25 22:20:00,
2013-02-25 15:23:00,32.8,9.3,30.32,East,90,1.0,-999.0,37,0.00,,,0.01,Wunderground v.1.15,2013-02-25 22:23:00,
2013-02-25 15:24:00,32.8,9.9,30.32,ESE,103,1.0,1.0,38,0.00,,,0.01,Wunderground v.1.15,2013-02-25 22:24:00,
2013-02-25 15:28:00,33.1,9.6,30.32,SE,136,1.0,1.0,37,0.00,,,0.01,Wunderground v.1.15,2013-02-25 22:28:00,
2013-02-25 15:33:00,33.2,8.5,30.31,SE,135,0.0,-999.0,35,0.00,,,0.01,Wunderground v.1.15,2013-02-25 22:33:00,
2013-02-25 15:38:00,33.2,5.8,30.31,ESE,113,1.0,-999.0,31,0.00,,,0.01,Wunderground v.1.15,2013-02-25 22:38:00,
2013-02-25 15:43:00,33.2,5.8,30.31,ESE,113,1.0,-999.0,31,0.00,,,0.01,Wunderground v.1.15,2013-02-25 22:43:00,
2013-02-25 15:48:00,33.2,7.8,30.31,ESE,113,1.0,-999.0,34,0.00,,,0.01,Wunderground v.1.15,2013-02-25 22:48:00,
2013-02-25 15:53:00,33.2,7.8,30.31,ESE,113,1.0,-999.0,34,0.00,,,0.01,Wunderground v.1.15,2013-02-25 22:53:00,
2013-02-25 15:58:00,33.2,6.5,30.31,ESE,113,1.0,-999.0,32,0.00,,,0.01,Wunderground v.1.15,2013-02-25 22:58:00,
2013-02-25 16:03:00,33.2,6.5,30.31,ESE,113,1.0,-999.0,32,0.00,,,0.01,Wunderground v.1.15,2013-02-25 23:03:00,
2013-02-25 16:08:00,33.4,6.0,30.31,ESE,113,1.0,-999.0,31,0.00,,,0.01,Wunderground v.1.15,2013-02-25 23:08:00,
2013-02-25 16:13:00,33.4,6.0,30.31,ESE,113,1.0,-999.0,31,0.00,,,0.01,Wunderground v.1.15,2013-02-25 23:13:00,
2013-02-25 16:18:00,33.4,8.6,30.30,East,90,1.0,-999.0,35,0.00,,,0.01,Wunderground v.1.15,2013-02-25 23:18:00,
2013-02-25 16:23:00,33.4,8.6,30.30,East,90,1.0,-999.0,35,0.00,,,0.01,Wunderground v.1.15,2013-02-25 23:23:00,
2013-02-25 16:28:00,33.7,9.5,30.28,ESE,113,1.0,-999.0,36,0.00,,,0.01,Wunderground v.1.15,2013-02-25 23:28:00,
2013-02-25 16:33:00,33.7,9.5,30.28,ESE,113,1.0,-999.0,36,0.00,,,0.01,Wunderground v.1.15,2013-02-25 23:33:00,
2013-02-25 16:38:00,33.7,11.3,30.28,SE,135,2.0,-999.0,39,0.00,,,0.01,Wunderground v.1.15,2013-02-25 23:38:00,
2013-02-25 16:43:00,33.7,11.3,30.28,SE,135,2.0,-999.0,39,0.00,,,0.01,Wunderground v.1.15,2013-02-25 23:43:00,
2013-02-25 16:48:00,34.0,11.0,30.27,SE,135,0.0,-999.0,38,0.00,,,0.01,Wunderground v.1.15,2013-02-25 23:48:00,
2013-02-25 16:53:00,34.0,11.0,30.27,SE,135,0.0,-999.0,38,0.00,,,0.01,Wunderground v.1.15,2013-02-25 23:53:00,
2013-02-25 16:58:00,34.3,11.9,30.27,SE,135,1.0,-999.0,39,0.00,,,0.01,Wunderground v.1.15,2013-02-25 23:58:00,
2013-02-25 17:03:00,34.3,11.9,30.27,SE,135,1.0,-999.0,39,0.00,,,0.01,Wunderground v.1.15,2013-02-26 00:03:00,
2013-02-25 17:08:00,33.7,12.5,30.27,South,180,1.0,-999.0,41,0.00,,,0.01,Wunderground v.1.15,2013-02-26 00:08:00,
2013-02-25 17:13:00,33.7,12.5,30.27,South,180,1.0,-999.0,41,0.00,,,0.01,Wunderground v.1.15,2013-02-26 00:13:00,
2013-02-25 17:18:00,33.2,10.9,30.26,South,180,0.0,-999.0,39,0.00,,,0.01,Wunderground v.1.15,2013-02-26 00:18:00,
2013-02-25 17:23:00,33.2,10.9,30.26,South,180,0.0,-999.0,39,0.00,,,0.01,Wunderground v.1.15,2013-02-26 00:23:00,
2013-02-25 17:33:00,32.9,10.6,30.25,South,180,0.0,-999.0,39,0.00,,,0.01,Wunderground v.1.15,2013-02-26 00:33:00,
2013-02-25 17:34:00,32.9,9.4,30.25,South,170,0.0,4.0,37,0.00,,,0.01,Wunderground v.1.15,2013-02-26 00:34:00,
2013-02-25 17:38:00,32.8,10.5,30.25,South,170,0.0,4.0,39,0.00,,,0.01,Wunderground v.1.15,2013-02-26 00:38:00,
2013-02-25 17:40:00,32.7,10.4,30.25,South,170,0.0,0.0,39,0.00,,,0.01,Wunderground v.1.15,2013-02-26 00:40:00,
2013-02-25 17:44:00,32.4,11.3,30.25,South,170,0.0,0.0,41,0.00,,,0.01,Wunderground v.1.15,2013-02-26 00:44:00,
2013-02-25 17:48:00,32.2,11.1,30.25,South,170,0.0,0.0,41,0.00,,,0.01,Wunderground v.1.15,2013-02-26 00:48:00,
2013-02-25 17:52:00,31.9,11.9,30.25,South,170,0.0,0.0,43,0.00,,,0.01,Wunderground v.1.15,2013-02-26 00:52:00,
2013-02-25 17:54:00,31.8,11.8,30.25,South,170,0.0,0.0,43,0.00,,,0.01,Wunderground v.1.15,2013-02-26 00:54:00,
2013-02-25 17:58:00,31.5,12.1,30.25,South,170,0.0,0.0,44,0.00,,,0.01,Wunderground v.1.15,2013-02-26 00:58:00,
2013-02-25 18:02:00,31.2,12.8,30.26,South,170,0.0,0.0,46,0.00,,,0.01,Wunderground v.1.15,2013-02-26 01:02:00,
2013-02-25 18:04:00,31.0,12.6,30.26,South,170,0.0,0.0,46,0.00,,,0.01,Wunderground v.1.15,2013-02-26 01:04:00,
2013-02-25 18:06:00,30.9,12.5,30.26,South,170,0.0,0.0,46,0.00,,,0.01,Wunderground v.1.15,2013-02-26 01:06:00,
2013-02-25 18:12:00,30.6,12.7,30.26,South,170,0.0,0.0,47,0.00,,,0.01,Wunderground v.1.15,2013-02-26 01:12:00,
2013-02-25 18:14:00,30.4,13.0,30.26,South,170,0.0,2.0,48,0.00,,,0.01,Wunderground v.1.15,2013-02-26 01:14:00,
2013-02-25 18:18:00,30.1,13.7,30.27,South,170,0.0,2.0,50,0.00,,,0.01,Wunderground v.1.15,2013-02-26 01:18:00,
2013-02-25 18:20:00,30.0,14.0,30.27,South,170,0.0,2.0,51,0.00,,,0.01,Wunderground v.1.15,2013-02-26 01:20:00,
2013-02-25 18:22:00,29.8,13.9,30.27,South,170,0.0,0.0,51,0.00,,,0.01,Wunderground v.1.15,2013-02-26 01:22:00,
2013-02-25 18:26:00,29.4,13.0,30.27,South,170,0.0,0.0,50,0.00,,,0.01,Wunderground v.1.15,2013-02-26 01:26:00,
2013-02-25 18:28:00,29.1,12.8,30.27,South,170,0.0,0.0,50,0.00,,,0.01,Wunderground v.1.15,2013-02-26 01:28:00,
2013-02-25 18:30:00,28.8,12.5,30.27,South,170,0.0,0.0,50,0.00,,,0.01,Wunderground v.1.15,2013-02-26 01:30:00,
2013-02-25 18:34:00,28.4,12.1,30.27,South,170,0.0,0.0,50,0.00,,,0.01,Wunderground v.1.15,2013-02-26 01:34:00,
2013-02-25 18:38:00,27.9,12.1,30.27,South,170,0.0,0.0,51,0.00,,,0.01,Wunderground v.1.15,2013-02-26 01:38:00,
2013-02-25 18:40:00,27.6,12.7,30.27,South,170,0.0,0.0,53,0.00,,,0.01,Wunderground v.1.15,2013-02-26 01:40:00,
2013-02-25 18:42:00,27.0,12.5,30.27,South,170,0.0,0.0,54,0.00,,,0.01,Wunderground v.1.15,2013-02-26 01:42:00,
2013-02-25 18:44:00,26.6,12.6,30.27,South,170,0.0,0.0,55,0.00,,,0.01,Wunderground v.1.15,2013-02-26 01:44:00,
2013-02-25 18:46:00,26.3,12.3,30.30,South,170,0.0,0.0,55,0.00,,,0.01,Wunderground v.1.15,2013-02-26 01:46:00,
2013-02-25 18:52:00,25.8,12.6,30.30,South,170,0.0,0.0,57,0.00,,,0.01,Wunderground v.1.15,2013-02-26 01:52:00,
2013-02-25 18:54:00,25.7,12.6,30.30,South,170,0.0,0.0,57,0.00,,,0.01,Wunderground v.1.15,2013-02-26 01:54:00,
2013-02-25 18:58:00,25.4,12.7,30.30,South,170,0.0,1.0,58,0.00,,,0.01,Wunderground v.1.15,2013-02-26 01:58:00,
2013-02-25 19:02:00,25.1,11.6,30.30,South,170,0.0,2.0,56,0.00,,,0.01,Wunderground v.1.15,2013-02-26 02:02:00,
2013-02-25 19:04:00,25.1,11.2,30.30,South,170,0.0,2.0,55,0.00,,,0.01,Wunderground v.1.15,2013-02-26 02:04:00,
2013-02-25 19:06:00,25.1,10.8,30.30,South,170,0.0,2.0,54,0.00,,,0.01,Wunderground v.1.15,2013-02-26 02:06:00,
2013-02-25 19:08:00,25.0,10.7,30.30,South,170,0.0,2.0,54,0.00,,,0.01,Wunderground v.1.15,2013-02-26 02:08:00,
2013-02-25 19:14:00,25.0,10.3,30.30,South,170,0.0,0.0,53,0.00,,,0.01,Wunderground v.1.15,2013-02-26 02:14:00,
2013-02-25 19:18:00,25.0,9.8,30.28,South,170,0.0,0.0,52,0.00,,,0.01,Wunderground v.1.15,2013-02-26 02:18:00,
2013-02-25 19:20:00,25.0,11.1,30.28,South,170,0.0,0.0,55,0.00,,,0.01,Wunderground v.1.15,2013-02-26 02:20:00,
2013-02-25 19:22:00,24.7,11.2,30.28,South,170,0.0,1.0,56,0.00,,,0.01,Wunderground v.1.15,2013-02-26 02:22:00,
2013-02-25 19:26:00,23.9,11.3,30.28,South,170,0.0,1.0,58,0.00,,,0.01,Wunderground v.1.15,2013-02-26 02:26:00,
2013-02-25 19:28:00,23.6,11.0,30.28,South,170,0.0,1.0,58,0.00,,,0.01,Wunderground v.1.15,2013-02-26 02:28:00,
2013-02-25 19:32:00,23.3,10.7,30.29,South,170,0.0,0.0,58,0.00,,,0.01,Wunderground v.1.15,2013-02-26 02:32:00,
2013-02-25 19:34:00,23.2,10.6,30.29,South,170,0.0,0.0,58,0.00,,,0.01,Wunderground v.1.15,2013-02-26 02:34:00,
2013-02-25 19:36:00,23.0,10.4,30.29,South,170,0.0,0.0,58,0.00,,,0.01,Wunderground v.1.15,2013-02-26 02:36:00,
2013-02-25 19:38:00,23.0,10.4,30.29,South,170,0.0,0.0,58,0.00,,,0.01,Wunderground v.1.15,2013-02-26 02:38:00,
2013-02-25 19:40:00,22.9,10.3,30.29,South,170,0.0,0.0,58,0.00,,,0.01,Wunderground v.1.15,2013-02-26 02:40:00,
2013-02-25 19:42:00,22.9,9.9,30.29,South,170,0.0,1.0,57,0.00,,,0.01,Wunderground v.1.15,2013-02-26 02:42:00,
2013-02-25 19:44:00,22.9,9.9,30.29,South,170,0.0,1.0,57,0.00,,,0.01,Wunderground v.1.15,2013-02-26 02:44:00,
2013-02-25 19:46:00,22.9,9.5,30.29,South,170,0.0,1.0,56,0.00,,,0.01,Wunderground v.1.15,2013-02-26 02:46:00,
2013-02-25 19:48:00,22.9,9.9,30.29,South,170,0.0,1.0,57,0.00,,,0.01,Wunderground v.1.15,2013-02-26 02:48:00,
2013-02-25 19:50:00,22.9,9.9,30.29,South,170,0.0,1.0,57,0.00,,,0.01,Wunderground v.1.15,2013-02-26 02:50:00,
2013-02-25 19:54:00,23.0,10.0,30.29,South,170,0.0,0.0,57,0.00,,,0.01,Wunderground v.1.15,2013-02-26 02:54:00,
2013-02-25 19:56:00,23.0,10.0,30.29,South,170,0.0,0.0,57,0.00,,,0.01,Wunderground v.1.15,2013-02-26 02:56:00,
2013-02-25 19:58:00,23.2,10.2,30.29,South,170,0.0,0.0,57,0.00,,,0.01,Wunderground v.1.15,2013-02-26 02:58:00,
2013-02-25 20:02:00,23.3,9.9,30.29,South,170,0.0,0.0,56,0.00,,,0.01,Wunderground v.1.15,2013-02-26 03:02:00,
2013-02-25 20:04:00,23.3,9.9,30.29,South,170,0.0,0.0,56,0.00,,,0.01,Wunderground v.1.15,2013-02-26 03:04:00,
2013-02-25 20:08:00,23.5,10.1,30.29,South,170,0.0,1.0,56,0.00,,,0.01,Wunderground v.1.15,2013-02-26 03:08:00,
2013-02-25 20:10:00,23.5,10.5,30.29,South,170,0.0,1.0,57,0.00,,,0.01,Wunderground v.1.15,2013-02-26 03:10:00,
2013-02-25 20:16:00,23.5,9.7,30.26,South,170,0.0,0.0,55,0.00,,,0.01,Wunderground v.1.15,2013-02-26 03:16:00,
2013-02-25 20:18:00,23.5,9.3,30.26,South,170,0.0,0.0,54,0.00,,,0.01,Wunderground v.1.15,2013-02-26 03:18:00,
2013-02-25 20:22:00,23.3,9.1,30.26,South,170,0.0,0.0,54,0.00,,,0.01,Wunderground v.1.15,2013-02-26 03:22:00,
2013-02-25 20:26:00,23.0,9.2,30.26,South,170,0.0,0.0,55,0.00,,,0.01,Wunderground v.1.15,2013-02-26 03:26:00,
2013-02-25 20:28:00,23.0,9.6,30.26,South,170,0.0,0.0,56,0.00,,,0.01,Wunderground v.1.15,2013-02-26 03:28:00,
2013-02-25 20:32:00,22.7,9.7,30.26,South,170,0.0,0.0,57,0.00,,,0.01,Wunderground v.1.15,2013-02-26 03:32:00,
2013-02-25 20:34:00,22.5,9.9,30.26,South,170,0.0,0.0,58,0.00,,,0.01,Wunderground v.1.15,2013-02-26 03:34:00,
2013-02-25 20:36:00,22.5,9.1,30.26,South,170,0.0,0.0,56,0.00,,,0.01,Wunderground v.1.15,2013-02-26 03:36:00,
2013-02-25 20:38:00,22.4,9.1,30.26,South,170,0.0,1.0,56,0.00,,,0.01,Wunderground v.1.15,2013-02-26 03:38:00,
2013-02-25 20:40:00,22.4,9.1,30.26,South,170,0.0,1.0,56,0.00,,,0.01,Wunderground v.1.15,2013-02-26 03:40:00,
2013-02-25 20:42:00,22.4,8.7,30.26,South,170,0.0,0.0,55,0.00,,,0.01,Wunderground v.1.15,2013-02-26 03:42:00,
2013-02-25 20:44:00,22.4,8.7,30.26,South,170,0.0,0.0,55,0.00,,,0.01,Wunderground v.1.15,2013-02-26 03:44:00,
2013-02-25 20:46:00,22.4,8.2,30.26,South,170,0.0,0.0,54,0.00,,,0.01,Wunderground v.1.15,2013-02-26 03:46:00,
2013-02-25 20:50:00,23.0,8.8,30.26,SE,138,0.0,3.0,54,0.00,,,0.01,Wunderground v.1.15,2013-02-26 03:50:00,
2013-02-25 20:54:00,23.3,7.8,30.26,SE,137,1.0,1.0,51,0.00,,,0.01,Wunderground v.1.15,2013-02-26 03:54:00,
2013-02-25 20:56:00,23.3,7.8,30.26,East,94,1.0,2.0,51,0.00,,,0.01,Wunderground v.1.15,2013-02-26 03:56:00,
2013-02-25 21:00:00,23.2,7.7,30.26,SE,130,1.0,3.0,51,0.00,,,0.01,Wunderground v.1.15,2013-02-26 04:00:00,
2013-02-25 21:04:00,23.0,8.0,30.23,SE,131,2.0,3.0,52,0.00,,,0.01,Wunderground v.1.15,2013-02-26 04:04:00,
2013-02-25 21:06:00,23.0,8.4,30.23,SE,131,2.0,3.0,53,0.00,,,0.01,Wunderground v.1.15,2013-02-26 04:06:00,
2013-02-25 21:08:00,23.0,8.4,30.23,SE,131,1.0,3.0,53,0.00,,,0.01,Wunderground v.1.15,2013-02-26 04:08:00,
2013-02-25 21:10:00,22.9,8.3,30.23,SE,131,1.0,1.0,53,0.00,,,0.01,Wunderground v.1.15,2013-02-26 04:10:00,
2013-02-25 21:12:00,22.9,8.3,30.23,SE,131,1.0,1.0,53,0.00,,,0.01,Wunderground v.1.15,2013-02-26 04:12:00,
2013-02-25 21:14:00,22.9,7.9,30.23,SE,131,0.0,1.0,52,0.00,,,0.01,Wunderground v.1.15,2013-02-26 04:14:00,
2013-02-25 21:16:00,22.9,7.9,30.22,SE,131,0.0,1.0,52,0.00,,,0.01,Wunderground v.1.15,2013-02-26 04:16:00,
2013-02-25 21:20:00,23.0,7.5,30.22,SE,131,0.0,0.0,51,0.00,,,0.01,Wunderground v.1.15,2013-02-26 04:20:00,
2013-02-25 21:24:00,23.2,8.2,30.22,SE,131,0.0,0.0,52,0.00,,,0.01,Wunderground v.1.15,2013-02-26 04:24:00,
2013-02-25 21:26:00,23.2,8.6,30.22,SE,131,0.0,0.0,53,0.00,,,0.01,Wunderground v.1.15,2013-02-26 04:26:00,
2013-02-25 21:30:00,23.2,8.6,30.23,SE,131,0.0,0.0,53,0.00,,,0.01,Wunderground v.1.15,2013-02-26 04:30:00,
2013-02-25 21:34:00,23.3,8.2,30.23,SE,131,0.0,0.0,52,0.00,,,0.01,Wunderground v.1.15,2013-02-26 04:34:00,
2013-02-25 21:36:00,23.3,8.2,30.23,SE,131,0.0,0.0,52,0.00,,,0.01,Wunderground v.1.15,2013-02-26 04:36:00,
2013-02-25 21:38:00,23.3,8.2,30.23,SE,131,0.0,0.0,52,0.00,,,0.01,Wunderground v.1.15,2013-02-26 04:38:00,
2013-02-25 21:40:00,23.5,8.4,30.23,SE,131,0.0,0.0,52,0.00,,,0.01,Wunderground v.1.15,2013-02-26 04:40:00,
2013-02-25 21:42:00,23.5,8.4,30.23,SE,131,0.0,0.0,52,0.00,,,0.01,Wunderground v.1.15,2013-02-26 04:42:00,
2013-02-25 21:44:00,23.5,8.9,30.23,SE,131,0.0,0.0,53,0.00,,,0.01,Wunderground v.1.15,2013-02-26 04:44:00,
2013-02-25 21:48:00,23.5,8.9,30.21,SE,131,0.0,0.0,53,0.00,,,0.01,Wunderground v.1.15,2013-02-26 04:48:00,
2013-02-25 21:50:00,23.6,9.4,30.21,SE,131,0.0,0.0,54,0.00,,,0.01,Wunderground v.1.15,2013-02-26 04:50:00,
2013-02-25 21:52:00,23.6,9.4,30.21,SE,131,0.0,0.0,54,0.00,,,0.01,Wunderground v.1.15,2013-02-26 04:52:00,
2013-02-25 21:54:00,23.6,8.9,30.21,SE,131,0.0,0.0,53,0.00,,,0.01,Wunderground v.1.15,2013-02-26 04:54:00,
2013-02-25 21:58:00,23.8,9.1,30.21,SE,131,0.0,0.0,53,0.00,,,0.01,Wunderground v.1.15,2013-02-26 04:58:00,
2013-02-25 22:00:00,23.8,9.1,30.21,SE,131,0.0,0.0,53,0.00,,,0.01,Wunderground v.1.15,2013-02-26 05:00:00,
2013-02-25 22:02:00,23.8,9.1,30.21,SE,131,0.0,0.0,53,0.00,,,0.01,Wunderground v.1.15,2013-02-26 05:02:00,
2013-02-25 22:04:00,23.9,9.6,30.21,SE,131,0.0,0.0,54,0.00,,,0.01,Wunderground v.1.15,2013-02-26 05:04:00,
2013-02-25 22:08:00,23.8,9.6,30.21,SE,131,0.0,0.0,54,0.00,,,0.01,Wunderground v.1.15,2013-02-26 05:08:00,
2013-02-25 22:10:00,23.6,9.4,30.21,SE,131,0.0,0.0,54,0.00,,,0.01,Wunderground v.1.15,2013-02-26 05:10:00,
2013-02-25 22:14:00,23.6,9.8,30.21,SE,131,0.0,0.0,55,0.00,,,0.01,Wunderground v.1.15,2013-02-26 05:14:00,
2013-02-25 22:16:00,23.6,9.8,30.21,SE,131,0.0,0.0,55,0.00,,,0.01,Wunderground v.1.15,2013-02-26 05:16:00,
2013-02-25 22:18:00,23.6,9.8,30.21,SE,131,0.0,1.0,55,0.00,,,0.01,Wunderground v.1.15,2013-02-26 05:18:00,
2013-02-25 22:20:00,23.9,10.1,30.21,SE,131,0.0,0.0,55,0.00,,,0.01,Wunderground v.1.15,2013-02-26 05:20:00,
2013-02-25 22:22:00,23.9,10.1,30.21,SE,131,0.0,0.0,55,0.00,,,0.01,Wunderground v.1.15,2013-02-26 05:22:00,
2013-02-25 22:24:00,24.1,10.2,30.21,SE,131,0.0,0.0,55,0.00,,,0.01,Wunderground v.1.15,2013-02-26 05:24:00,
2013-02-25 22:30:00,24.2,9.9,30.21,SE,131,0.0,0.0,54,0.00,,,0.01,Wunderground v.1.15,2013-02-26 05:30:00,
2013-02-25 22:32:00,24.2,9.5,30.21,SE,131,0.0,0.0,53,0.00,,,0.01,Wunderground v.1.15,2013-02-26 05:32:00,
2013-02-25 22:34:00,24.4,10.1,30.21,SE,131,0.0,0.0,54,0.00,,,0.01,Wunderground v.1.15,2013-02-26 05:34:00,
2013-02-25 22:36:00,24.4,11.3,30.21,SE,131,0.0,0.0,57,0.00,,,0.01,Wunderground v.1.15,2013-02-26 05:36:00,
2013-02-25 22:38:00,24.4,11.3,30.21,SE,131,0.0,0.0,57,0.00,,,0.01,Wunderground v.1.15,2013-02-26 05:38:00,
2013-02-25 22:40:00,24.5,11.0,30.21,SE,131,0.0,2.0,56,0.00,,,0.01,Wunderground v.1.15,2013-02-26 05:40:00,
2013-02-25 22:44:00,25.0,11.9,30.21,SE,131,0.0,2.0,57,0.00,,,0.01,Wunderground v.1.15,2013-02-26 05:44:00,
2013-02-25 22:46:00,25.0,11.5,30.21,SE,131,0.0,2.0,56,0.00,,,0.01,Wunderground v.1.15,2013-02-26 05:46:00,
2013-02-25 22:48:00,25.1,11.6,30.21,SE,131,0.0,2.0,56,0.00,,,0.01,Wunderground v.1.15,2013-02-26 05:48:00,
2013-02-25 22:54:00,25.1,12.0,30.21,SE,131,0.0,2.0,57,0.00,,,0.01,Wunderground v.1.15,2013-02-26 05:54:00,
2013-02-25 22:56:00,25.1,11.6,30.21,SE,131,1.0,2.0,56,0.00,,,0.01,Wunderground v.1.15,2013-02-26 05:56:00,
2013-02-25 22:58:00,25.0,11.9,30.21,SE,130,1.0,2.0,57,0.00,,,0.01,Wunderground v.1.15,2013-02-26 05:58:00,
2013-02-25 23:00:00,25.0,11.9,30.21,SE,131,1.0,1.0,57,0.00,,,0.01,Wunderground v.1.15,2013-02-26 06:00:00,
2013-02-25 23:02:00,24.8,11.7,30.21,SE,131,1.0,1.0,57,0.00,,,0.01,Wunderground v.1.15,2013-02-26 06:02:00,
2013-02-25 23:06:00,24.7,11.2,30.21,SE,131,1.0,2.0,56,0.00,,,0.01,Wunderground v.1.15,2013-02-26 06:06:00,
2013-02-25 23:10:00,24.4,10.9,30.21,SE,131,1.0,1.0,56,0.00,,,0.01,Wunderground v.1.15,2013-02-26 06:10:00,
2013-02-25 23:12:00,24.4,10.5,30.21,SE,131,1.0,1.0,55,0.00,,,0.01,Wunderground v.1.15,2013-02-26 06:12:00,
2013-02-25 23:14:00,24.2,10.3,30.21,SE,131,1.0,1.0,55,0.00,,,0.01,Wunderground v.1.15,2013-02-26 06:14:00,
2013-02-25 23:16:00,24.2,10.3,30.21,SE,131,0.0,1.0,55,0.00,,,0.01,Wunderground v.1.15,2013-02-26 06:16:00,
2013-02-25 23:22:00,23.9,10.1,30.21,SE,131,0.0,0.0,55,0.00,,,0.01,Wunderground v.1.15,2013-02-26 06:22:00,
2013-02-25 23:26:00,23.6,10.2,30.21,SE,131,0.0,1.0,56,0.00,,,0.01,Wunderground v.1.15,2013-02-26 06:26:00,
2013-02-25 23:32:00,23.2,9.8,30.21,SE,131,0.0,0.0,56,0.00,,,0.01,Wunderground v.1.15,2013-02-26 06:32:00,
2013-02-25 23:34:00,23.0,9.6,30.21,SE,131,0.0,0.0,56,0.00,,,0.01,Wunderground v.1.15,2013-02-26 06:34:00,
2013-02-25 23:38:00,22.9,9.5,30.21,SE,131,0.0,1.0,56,0.00,,,0.01,Wunderground v.1.15,2013-02-26 06:38:00,
2013-02-25 23:42:00,22.7,9.3,30.21,SE,131,0.0,0.0,56,0.00,,,0.01,Wunderground v.1.15,2013-02-26 06:42:00,
2013-02-25 23:44:00,22.7,9.3,30.21,SE,131,0.0,0.0,56,0.00,,,0.01,Wunderground v.1.15,2013-02-26 06:44:00,
2013-02-25 23:48:00,22.7,9.3,30.21,SE,131,0.0,0.0,56,0.00,,,0.01,Wunderground v.1.15,2013-02-26 06:48:00,
2013-02-25 23:50:00,22.7,9.7,30.21,SE,131,0.0,1.0,57,0.00,,,0.01,Wunderground v.1.15,2013-02-26 06:50:00,
2013-02-25 23:52:00,22.7,9.7,30.21,SE,131,0.0,1.0,57,0.00,,,0.01,Wunderground v.1.15,2013-02-26 06:52:00,
2013-02-25 23:54:00,22.7,9.7,30.21,SE,131,0.0,1.0,57,0.00,,,0.01,Wunderground v.1.15,2013-02-26 06:54:00,
2013-02-25 23:56:00,22.9,10.3,30.21,SE,131,0.0,1.0,58,0.00,,,0.01,Wunderground v.1.15,2013-02-26 06:56:00,
2013-02-25 23:58:00,22.9,10.3,30.21,SE,131,0.0,1.0,58,0.00,,,0.01,Wunderground v.1.15,2013-02-26 06:58:00,